createdAt,value
2019-04-04T00:03:34.258Z,20.69
2019-04-04T00:06:02.642Z,20.69
2019-04-04T00:08:31.838Z,20.68
2019-04-04T00:11:00.273Z,20.67
2019-04-04T00:13:28.644Z,20.66
2019-04-04T00:15:57.029Z,20.67
2019-04-04T00:18:27.327Z,20.67
2019-04-04T00:20:55.583Z,20.66
2019-04-04T00:23:23.951Z,20.65
2019-04-04T00:25:53.334Z,20.67
2019-04-04T00:28:21.726Z,20.65
2019-04-04T00:30:50.085Z,20.66
2019-04-04T00:33:18.460Z,20.65
2019-04-04T00:35:46.844Z,20.65
2019-04-04T00:38:15.211Z,20.64
2019-04-04T00:40:43.597Z,20.63
2019-04-04T00:43:11.969Z,20.63
2019-04-04T00:45:40.349Z,20.63
2019-04-04T00:48:08.724Z,20.63
2019-04-04T00:50:37.355Z,20.62
2019-04-04T00:53:05.730Z,20.62
2019-04-04T00:55:34.112Z,20.62
2019-04-04T00:58:02.485Z,20.60
2019-04-04T01:00:30.937Z,20.61
2019-04-04T01:02:59.310Z,20.59
2019-04-04T01:05:27.684Z,20.58
2019-04-04T01:07:56.071Z,20.58
2019-04-04T01:10:24.441Z,20.58
2019-04-04T01:12:53.669Z,20.58
2019-04-04T01:15:22.035Z,20.57
2019-04-04T01:17:50.409Z,20.57
2019-04-04T01:20:20.440Z,20.56
2019-04-04T01:22:49.114Z,20.56
2019-04-04T01:25:17.490Z,20.54
2019-04-04T01:27:45.869Z,20.54
2019-04-04T01:30:14.469Z,20.54
2019-04-04T01:32:42.854Z,20.52
2019-04-04T01:35:11.465Z,20.52
2019-04-04T01:37:39.847Z,20.51
2019-04-04T01:40:08.546Z,20.52
2019-04-04T01:42:38.703Z,20.50
2019-04-04T01:45:07.767Z,20.51
2019-04-04T01:47:36.141Z,20.51
2019-04-04T01:50:05.244Z,20.49
2019-04-04T01:52:33.629Z,20.50
2019-04-04T01:55:03.419Z,20.49
2019-04-04T01:57:32.091Z,20.48
2019-04-04T02:00:00.485Z,20.48
2019-04-04T02:02:28.860Z,20.48
2019-04-04T02:04:57.224Z,20.47
2019-04-04T02:07:25.599Z,20.47
2019-04-04T02:09:54.241Z,20.46
2019-04-04T02:12:22.626Z,20.46
2019-04-04T02:14:51.012Z,20.45
2019-04-04T02:17:20.092Z,20.44
2019-04-04T02:19:49.469Z,20.44
2019-04-04T02:22:17.833Z,20.43
2019-04-04T02:24:46.211Z,20.43
2019-04-04T02:27:14.571Z,20.42
2019-04-04T02:29:42.949Z,20.42
2019-04-04T02:32:12.952Z,20.41
2019-04-04T02:34:41.401Z,20.42
2019-04-04T02:37:09.765Z,20.41
2019-04-04T02:39:38.144Z,20.41
2019-04-04T02:42:06.514Z,20.39
2019-04-04T02:44:34.901Z,20.39
2019-04-04T02:47:03.284Z,20.39
2019-04-04T02:49:31.643Z,20.38
2019-04-04T02:52:00.009Z,20.37
2019-04-04T02:54:28.379Z,20.36
2019-04-04T02:56:56.750Z,20.36
2019-04-04T02:59:25.130Z,20.37
2019-04-04T03:01:54.511Z,20.35
2019-04-04T03:04:23.053Z,20.35
2019-04-04T03:06:51.617Z,20.36
2019-04-04T03:09:20.052Z,20.34
2019-04-04T03:11:48.417Z,20.34
2019-04-04T03:14:16.862Z,20.34
2019-04-04T03:16:45.225Z,20.32
2019-04-04T03:19:13.614Z,20.32
2019-04-04T03:21:41.981Z,20.32
2019-04-04T03:24:10.364Z,20.31
2019-04-04T03:26:38.726Z,20.31
2019-04-04T03:29:10.205Z,20.30
2019-04-04T03:31:38.810Z,20.30
2019-04-04T03:34:11.124Z,20.29
2019-04-04T03:36:37.619Z,20.29
2019-04-04T03:39:06.732Z,20.28
2019-04-04T03:41:36.131Z,20.28
2019-04-04T03:44:04.703Z,20.27
2019-04-04T03:46:38.394Z,20.28
2019-04-04T03:49:03.170Z,20.28
2019-04-04T03:51:31.542Z,20.27
2019-04-04T03:54:01.794Z,20.26
2019-04-04T03:56:33.325Z,20.27
2019-04-04T03:59:00.830Z,20.26
2019-04-04T04:01:29.436Z,20.26
2019-04-04T04:03:57.760Z,20.26
2019-04-04T04:06:26.138Z,20.27
2019-04-04T04:08:55.398Z,20.27
2019-04-04T04:11:23.805Z,20.26
2019-04-04T04:13:52.197Z,20.28
2019-04-04T04:16:20.572Z,20.28
2019-04-04T04:18:48.933Z,20.28
2019-04-04T04:21:17.306Z,20.28
2019-04-04T04:23:49.550Z,20.28
2019-04-04T04:26:15.776Z,20.28
2019-04-04T04:28:44.146Z,20.28
2019-04-04T04:31:15.301Z,20.27
2019-04-04T04:33:42.614Z,20.27
2019-04-04T04:36:15.267Z,20.26
2019-04-04T04:38:41.079Z,20.27
2019-04-04T04:41:09.455Z,20.28
2019-04-04T04:43:37.835Z,20.26
2019-04-04T04:46:06.211Z,20.26
2019-04-04T04:48:34.580Z,20.27
2019-04-04T04:51:02.960Z,20.28
2019-04-04T04:53:31.325Z,20.27
2019-04-04T04:56:00.728Z,20.27
2019-04-04T04:58:29.155Z,20.26
2019-04-04T05:00:57.526Z,20.26
2019-04-04T05:03:25.890Z,20.26
2019-04-04T05:05:54.288Z,20.25
2019-04-04T05:08:22.632Z,20.26
2019-04-04T05:10:51.010Z,20.24
2019-04-04T05:13:19.380Z,20.23
2019-04-04T05:15:47.763Z,20.22
2019-04-04T05:18:16.962Z,20.21
2019-04-04T05:20:45.485Z,20.21
2019-04-04T05:23:15.593Z,20.21
2019-04-04T05:25:52.079Z,20.21
2019-04-04T05:28:14.046Z,20.19
2019-04-04T05:30:42.415Z,20.20
2019-04-04T05:33:10.790Z,20.22
2019-04-04T05:35:39.275Z,20.22
2019-04-04T05:38:07.982Z,20.21
2019-04-04T05:40:36.382Z,20.21
2019-04-04T05:43:04.897Z,20.22
2019-04-04T05:45:33.406Z,20.22
2019-04-04T05:48:01.785Z,20.22
2019-04-04T05:50:30.173Z,20.23
2019-04-04T05:52:58.538Z,20.23
2019-04-04T05:55:26.908Z,20.24
2019-04-04T05:57:56.221Z,20.26
2019-04-04T06:00:27.072Z,20.26
2019-04-04T06:02:54.734Z,20.26
2019-04-04T06:05:23.139Z,20.26
2019-04-04T06:07:51.468Z,20.28
2019-04-04T06:10:19.839Z,20.28
2019-04-04T06:12:48.212Z,20.26
2019-04-04T06:15:16.583Z,20.29
2019-04-04T06:17:44.966Z,20.29
2019-04-04T06:20:14.991Z,20.29
2019-04-04T06:22:43.923Z,20.28
2019-04-04T06:25:12.320Z,20.28
2019-04-04T06:27:40.977Z,20.28
2019-04-04T06:30:09.576Z,20.28
2019-04-04T06:32:39.072Z,20.26
2019-04-04T06:35:07.841Z,20.26
2019-04-04T06:37:38.549Z,20.26
2019-04-04T06:40:07.840Z,20.25
2019-04-04T06:42:37.185Z,20.26
2019-04-04T06:45:08.794Z,20.26
2019-04-04T06:47:37.158Z,20.25
2019-04-04T06:50:08.051Z,20.25
2019-04-04T06:52:36.458Z,20.23
2019-04-04T06:55:06.174Z,20.22
2019-04-04T06:57:36.574Z,20.22
2019-04-04T07:00:08.290Z,20.20
2019-04-04T07:02:36.653Z,20.20
2019-04-04T07:05:06.974Z,20.21
2019-04-04T07:07:35.621Z,20.21
2019-04-04T07:10:07.253Z,20.21
2019-04-04T07:12:37.775Z,20.20
2019-04-04T07:15:11.221Z,20.22
2019-04-04T07:17:40.472Z,20.22
2019-04-04T07:20:09.385Z,20.23
2019-04-04T07:22:37.757Z,20.21
2019-04-04T07:25:06.866Z,20.22
2019-04-04T07:27:35.309Z,20.20
2019-04-04T07:30:05.364Z,20.22
2019-04-04T07:32:33.740Z,20.22
2019-04-04T07:35:02.124Z,20.21
2019-04-04T07:37:30.489Z,20.20
2019-04-04T07:39:58.865Z,20.19
2019-04-04T07:42:27.235Z,20.19
2019-04-04T07:44:55.608Z,20.20
2019-04-04T07:47:23.980Z,20.18
2019-04-04T07:49:53.230Z,20.19
2019-04-04T07:52:22.453Z,20.20
2019-04-04T07:54:50.824Z,20.22
2019-04-04T07:57:19.734Z,20.24
2019-04-04T07:59:48.559Z,20.25
2019-04-04T08:02:16.928Z,20.26
2019-04-04T08:04:45.295Z,20.27
2019-04-04T08:07:13.663Z,20.27
2019-04-04T08:09:42.037Z,20.28
2019-04-04T08:12:10.455Z,20.29
2019-04-04T08:14:38.772Z,20.26
2019-04-04T08:17:07.138Z,20.28
2019-04-04T08:19:35.514Z,20.29
2019-04-04T08:22:03.994Z,20.26
2019-04-04T08:24:32.320Z,20.27
2019-04-04T08:27:00.692Z,20.27
2019-04-04T08:29:29.071Z,20.29
2019-04-04T08:31:57.709Z,20.29
2019-04-04T08:34:26.090Z,20.31
2019-04-04T08:36:54.456Z,20.31
2019-04-04T08:39:22.821Z,20.32
2019-04-04T08:41:52.476Z,20.34
2019-04-04T08:44:21.040Z,20.35
2019-04-04T08:46:49.427Z,20.36
2019-04-04T08:49:17.784Z,20.36
2019-04-04T08:51:46.160Z,20.38
2019-04-04T08:54:14.526Z,20.39
2019-04-04T08:56:42.937Z,20.39
2019-04-04T08:59:11.281Z,20.41
2019-04-04T09:01:39.678Z,20.43
2019-04-04T09:04:08.041Z,20.44
2019-04-04T09:06:36.419Z,20.46
2019-04-04T09:09:06.422Z,20.46
2019-04-04T09:11:34.798Z,20.47
2019-04-04T09:14:03.499Z,20.48
2019-04-04T09:16:31.898Z,20.47
2019-04-04T09:19:00.270Z,20.48
2019-04-04T09:21:28.640Z,20.49
2019-04-04T09:24:00.515Z,20.50
2019-04-04T09:26:27.897Z,20.51
2019-04-04T09:28:56.282Z,20.52
2019-04-04T09:31:24.669Z,20.53
2019-04-04T09:33:53.032Z,20.51
2019-04-04T09:36:21.408Z,20.54
2019-04-04T09:38:49.785Z,20.53
2019-04-04T09:41:18.159Z,20.52
2019-04-04T09:43:46.522Z,20.52
2019-04-04T09:46:14.895Z,20.52
2019-04-04T09:48:43.251Z,20.52
2019-04-04T09:51:11.638Z,20.51
2019-04-04T09:53:52.346Z,20.51
2019-04-04T09:56:10.135Z,20.49
2019-04-04T09:58:38.512Z,20.49
2019-04-04T10:01:06.958Z,20.49
2019-04-04T10:03:35.337Z,20.50
2019-04-04T10:06:03.702Z,20.51
2019-04-04T10:08:32.169Z,20.52
2019-04-04T10:11:00.532Z,20.53
2019-04-04T10:13:28.906Z,20.54
2019-04-04T10:15:58.256Z,20.55
2019-04-04T10:18:26.704Z,20.57
2019-04-04T10:20:55.132Z,20.55
2019-04-04T10:23:23.443Z,20.55
2019-04-04T10:25:51.812Z,20.57
2019-04-04T10:28:23.213Z,20.62
2019-04-04T10:30:50.281Z,20.66
2019-04-04T10:33:18.680Z,20.68
2019-04-04T10:35:47.031Z,20.72
2019-04-04T10:38:15.482Z,20.78
2019-04-04T10:40:43.846Z,20.79
2019-04-04T10:43:12.227Z,20.82
2019-04-04T10:45:40.595Z,20.81
2019-04-04T10:48:08.964Z,20.80
2019-04-04T10:50:37.334Z,20.80
2019-04-04T10:53:05.717Z,20.81
2019-04-04T10:55:34.094Z,20.81
2019-04-04T10:58:02.476Z,20.79
2019-04-04T11:00:30.844Z,20.80
2019-04-04T11:02:59.216Z,20.78
2019-04-04T11:05:28.593Z,20.77
2019-04-04T11:07:58.664Z,20.78
2019-04-04T11:10:26.934Z,20.75
2019-04-04T11:12:55.308Z,20.74
2019-04-04T11:15:23.686Z,20.74
2019-04-04T11:17:52.247Z,20.72
2019-04-04T11:20:20.619Z,20.71
2019-04-04T11:22:48.980Z,20.70
2019-04-04T11:25:17.365Z,20.70
2019-04-04T11:27:45.815Z,20.72
2019-04-04T11:30:14.527Z,20.73
2019-04-04T11:32:42.895Z,20.73
2019-04-04T11:35:11.330Z,20.75
2019-04-04T11:37:39.695Z,20.75
2019-04-04T11:40:08.315Z,20.75
2019-04-04T11:42:36.749Z,20.74
2019-04-04T11:45:05.567Z,20.75
2019-04-04T11:47:33.930Z,20.77
2019-04-04T11:50:02.315Z,20.75
2019-04-04T11:52:30.690Z,20.75
2019-04-04T11:55:00.045Z,20.78
2019-04-04T11:57:29.017Z,20.80
2019-04-04T11:59:57.397Z,20.80
2019-04-04T12:02:27.421Z,20.80
2019-04-04T12:04:57.780Z,20.77
2019-04-04T12:07:25.950Z,20.79
2019-04-04T12:10:06.432Z,20.75
2019-04-04T12:12:24.407Z,20.74
2019-04-04T12:14:52.798Z,20.75
2019-04-04T12:17:21.158Z,20.75
2019-04-04T12:19:49.529Z,20.76
2019-04-04T12:22:17.899Z,20.76
2019-04-04T12:24:46.269Z,20.74
2019-04-04T12:27:14.631Z,20.78
2019-04-04T12:29:43.017Z,20.78
2019-04-04T12:32:11.438Z,20.84
2019-04-04T12:34:39.825Z,20.90
2019-04-04T12:37:08.190Z,20.92
2019-04-04T12:39:36.564Z,20.93
2019-04-04T12:42:05.267Z,20.94
2019-04-04T12:44:33.788Z,20.94
2019-04-04T12:47:02.325Z,20.93
2019-04-04T12:49:30.699Z,20.92
2019-04-04T12:51:59.517Z,20.88
2019-04-04T12:54:27.986Z,20.87
2019-04-04T12:56:56.348Z,20.85
2019-04-04T12:59:24.715Z,20.83
2019-04-04T13:01:53.085Z,20.81
2019-04-04T13:04:31.108Z,20.81
2019-04-04T13:06:51.561Z,20.80
2019-04-04T13:09:19.949Z,20.79
2019-04-04T13:11:48.368Z,20.77
2019-04-04T13:14:16.738Z,20.83
2019-04-04T13:16:45.123Z,20.82
2019-04-04T13:19:13.488Z,20.78
2019-04-04T13:21:41.858Z,20.76
2019-04-04T13:24:10.229Z,20.77
2019-04-04T13:26:38.606Z,20.75
2019-04-04T13:29:06.964Z,20.77
2019-04-04T13:31:35.349Z,20.76
2019-04-04T13:34:03.713Z,20.78
2019-04-04T13:36:32.091Z,20.78
2019-04-04T13:39:00.454Z,20.78
2019-04-04T13:41:28.840Z,20.79
2019-04-04T13:43:57.209Z,20.78
2019-04-04T13:46:28.048Z,20.79
2019-04-04T13:48:55.683Z,20.79
2019-04-04T13:51:25.603Z,20.79
2019-04-04T13:53:54.061Z,20.78
2019-04-04T13:56:22.448Z,20.78
2019-04-04T13:58:50.816Z,20.77
2019-04-04T14:01:19.200Z,20.73
2019-04-04T14:03:47.606Z,20.78
2019-04-04T14:06:15.995Z,20.78
2019-04-04T14:08:45.793Z,20.79
2019-04-04T14:11:14.614Z,20.81
2019-04-04T14:13:43.396Z,20.81
2019-04-04T14:16:12.269Z,20.80
2019-04-04T14:18:44.438Z,20.80
2019-04-04T14:21:11.250Z,20.78
2019-04-04T14:23:39.800Z,20.78
2019-04-04T14:26:08.251Z,20.78
2019-04-04T14:28:36.620Z,20.76
2019-04-04T14:31:05.058Z,20.74
2019-04-04T14:33:33.438Z,20.76
2019-04-04T14:36:01.809Z,20.78
2019-04-04T14:38:30.526Z,20.81
2019-04-04T14:41:10.470Z,20.82
2019-04-04T14:43:30.052Z,20.83
2019-04-04T14:45:58.814Z,20.87
2019-04-04T14:48:27.361Z,20.87
2019-04-04T14:50:55.729Z,20.87
2019-04-04T14:53:26.253Z,20.84
2019-04-04T14:55:54.405Z,20.84
2019-04-04T14:58:22.786Z,20.82
2019-04-04T15:00:51.352Z,20.81
2019-04-04T15:03:19.754Z,20.80
2019-04-04T15:05:48.125Z,20.80
2019-04-04T15:08:16.521Z,20.80
2019-04-04T15:10:44.994Z,20.80
2019-04-04T15:13:14.373Z,20.79
2019-04-04T15:16:02.089Z,20.80
2019-04-04T15:18:30.838Z,20.79
2019-04-04T15:21:00.756Z,20.77
2019-04-04T15:23:29.125Z,20.80
2019-04-04T15:25:57.670Z,20.81
2019-04-04T15:28:26.280Z,20.78
2019-04-04T15:30:54.696Z,20.80
2019-04-04T15:33:23.086Z,20.81
2019-04-04T15:35:51.585Z,20.82
2019-04-04T15:38:19.973Z,20.82
2019-04-04T15:40:48.348Z,20.84
2019-04-04T15:43:16.722Z,20.84
2019-04-04T15:45:45.083Z,20.84
2019-04-04T15:48:13.878Z,20.86
2019-04-04T15:50:42.241Z,20.86
2019-04-04T15:53:10.697Z,20.85
2019-04-04T15:55:39.140Z,20.87
2019-04-04T15:58:07.523Z,20.87
2019-04-04T16:00:35.907Z,20.86
2019-04-04T16:03:04.358Z,20.87
2019-04-04T16:05:32.726Z,20.88
2019-04-04T16:08:01.276Z,20.89
2019-04-04T16:10:29.774Z,20.89
2019-04-04T16:12:58.223Z,20.87
2019-04-04T16:15:26.669Z,20.88
2019-04-04T16:17:55.033Z,20.91
2019-04-04T16:20:23.409Z,20.92
2019-04-04T16:22:51.803Z,20.90
2019-04-04T16:25:20.178Z,20.92
2019-04-04T16:27:48.558Z,20.93
2019-04-04T16:30:18.028Z,20.89
2019-04-04T16:32:46.406Z,20.90
2019-04-04T16:35:14.782Z,20.90
2019-04-04T16:37:43.146Z,20.92
2019-04-04T16:40:12.974Z,20.93
2019-04-04T16:42:41.344Z,20.93
2019-04-04T16:45:09.719Z,20.92
2019-04-04T16:47:38.085Z,20.91
2019-04-04T16:50:08.109Z,20.90
2019-04-04T16:52:36.474Z,20.90
2019-04-04T16:55:06.591Z,20.89
2019-04-04T16:57:34.945Z,20.89
2019-04-04T17:00:04.868Z,20.89
2019-04-04T17:02:33.246Z,20.88
2019-04-04T17:05:01.636Z,20.87
2019-04-04T17:07:29.985Z,20.85
2019-04-04T17:09:58.353Z,20.84
2019-04-04T17:12:26.720Z,20.82
2019-04-04T17:14:55.089Z,20.84
2019-04-04T17:17:23.451Z,20.84
2019-04-04T17:19:51.876Z,20.82
2019-04-04T17:22:20.249Z,20.81
2019-04-04T17:24:48.621Z,20.80
2019-04-04T17:27:16.981Z,20.78
2019-04-04T17:29:45.358Z,20.78
2019-04-04T17:32:13.716Z,20.77
2019-04-04T17:34:42.336Z,20.75
2019-04-04T17:37:10.704Z,20.75
2019-04-04T17:39:39.081Z,20.74
2019-04-04T17:42:07.508Z,20.76
2019-04-04T17:44:35.836Z,20.77
2019-04-04T17:47:04.392Z,20.80
2019-04-04T17:49:32.758Z,20.81
2019-04-04T17:52:01.133Z,20.80
2019-04-04T17:54:29.499Z,20.81
2019-04-04T17:56:58.124Z,20.79
2019-04-04T17:59:26.517Z,20.80
2019-04-04T18:01:54.891Z,20.80
2019-04-04T18:04:23.257Z,20.81
2019-04-04T18:06:51.632Z,20.82
2019-04-04T18:09:31.213Z,20.84
2019-04-04T18:11:50.329Z,20.85
2019-04-04T18:14:18.693Z,20.86
2019-04-04T18:16:47.074Z,20.84
2019-04-04T18:19:15.513Z,20.86
2019-04-04T18:21:43.898Z,20.86
2019-04-04T18:24:12.268Z,20.86
2019-04-04T18:26:40.648Z,20.85
2019-04-04T18:29:09.009Z,20.85
2019-04-04T18:31:37.395Z,20.85
2019-04-04T18:34:08.099Z,20.83
2019-04-04T18:36:36.032Z,20.82
2019-04-04T18:39:07.217Z,20.81
2019-04-04T18:41:35.613Z,20.81
2019-04-04T18:44:04.634Z,20.79
2019-04-04T18:46:33.025Z,20.79
2019-04-04T18:49:01.410Z,20.80
2019-04-04T18:51:29.784Z,20.79
2019-04-04T18:53:58.151Z,20.79
2019-04-04T18:56:26.519Z,20.78
2019-04-04T18:58:54.897Z,20.78
2019-04-04T19:01:23.265Z,20.76
2019-04-04T19:03:51.641Z,20.75
2019-04-04T19:06:20.147Z,20.76
2019-04-04T19:08:50.670Z,20.77
2019-04-04T19:11:18.623Z,20.77
2019-04-04T19:13:47.069Z,20.73
2019-04-04T19:16:15.464Z,20.73
2019-04-04T19:18:43.941Z,20.72
2019-04-04T19:21:12.310Z,20.73
2019-04-04T19:23:49.178Z,20.72
2019-04-04T19:26:10.941Z,20.73
2019-04-04T19:28:39.319Z,20.74
2019-04-04T19:31:08.705Z,20.71
2019-04-04T19:33:37.071Z,20.71
2019-04-04T19:36:05.611Z,20.71
2019-04-04T19:38:33.985Z,20.70
2019-04-04T19:41:02.367Z,20.68
2019-04-04T19:43:30.789Z,20.68
2019-04-04T19:45:59.158Z,20.66
2019-04-04T19:48:27.528Z,20.66
2019-04-04T19:50:55.889Z,20.64
2019-04-04T19:53:24.272Z,20.62
2019-04-04T19:55:52.634Z,20.61
2019-04-04T19:58:21.020Z,20.59
2019-04-04T20:00:49.457Z,20.58
2019-04-04T20:03:18.958Z,20.56
2019-04-04T20:05:47.328Z,20.57
2019-04-04T20:08:15.702Z,20.56
2019-04-04T20:10:44.068Z,20.55
2019-04-04T20:13:12.442Z,20.54
2019-04-04T20:15:40.811Z,20.53
2019-04-04T20:18:09.251Z,20.52
2019-04-04T20:20:37.683Z,20.52
2019-04-04T20:23:06.138Z,20.51
2019-04-04T20:25:34.499Z,20.52
2019-04-04T20:28:02.888Z,20.50
2019-04-04T20:30:40.643Z,20.51
2019-04-04T20:33:09.388Z,20.50
2019-04-04T20:35:37.794Z,20.50
2019-04-04T20:38:06.347Z,20.49
2019-04-04T20:40:34.721Z,20.47
2019-04-04T20:43:03.083Z,20.46
2019-04-04T20:45:31.439Z,20.46
2019-04-04T20:47:59.804Z,20.47
2019-04-04T20:50:28.172Z,20.46
2019-04-04T20:52:56.532Z,20.45
2019-04-04T20:55:24.906Z,20.44
2019-04-04T20:57:53.269Z,20.44
2019-04-04T21:00:21.648Z,20.42
2019-04-04T21:02:50.012Z,20.41
2019-04-04T21:05:18.388Z,20.41
2019-04-04T21:07:46.768Z,20.41
2019-04-04T21:10:15.776Z,20.39
2019-04-04T21:12:44.216Z,20.39
2019-04-04T21:15:13.206Z,20.39
2019-04-04T21:17:41.638Z,20.39
2019-04-04T21:20:10.168Z,20.38
2019-04-04T21:22:38.534Z,20.38
2019-04-04T21:25:07.146Z,20.39
2019-04-04T21:27:35.563Z,20.38
2019-04-04T21:30:05.875Z,20.38
2019-04-04T21:32:34.231Z,20.37
2019-04-04T21:35:02.603Z,20.35
2019-04-04T21:37:30.966Z,20.36
2019-04-04T21:39:59.347Z,20.35
2019-04-04T21:42:27.714Z,20.36
2019-04-04T21:44:56.176Z,20.36
2019-04-04T21:47:24.540Z,20.34
2019-04-04T21:49:52.899Z,20.33
2019-04-04T21:52:21.287Z,20.32
2019-04-04T21:54:49.654Z,20.31
2019-04-04T21:57:18.053Z,20.32
2019-04-04T21:59:46.503Z,20.32
2019-04-04T22:02:15.111Z,20.32
2019-04-04T22:04:43.478Z,20.31
2019-04-04T22:07:11.917Z,20.29
2019-04-04T22:09:40.276Z,20.29
2019-04-04T22:12:08.645Z,20.29
2019-04-04T22:14:37.013Z,20.28
2019-04-04T22:17:05.387Z,20.27
2019-04-04T22:19:33.746Z,20.28
2019-04-04T22:22:02.121Z,20.28
2019-04-04T22:24:30.484Z,20.26
2019-04-04T22:26:58.864Z,20.25
2019-04-04T22:29:27.233Z,20.26
2019-04-04T22:31:55.610Z,20.26
2019-04-04T22:34:23.963Z,20.25
2019-04-04T22:36:52.417Z,20.25
2019-04-04T22:39:20.777Z,20.24
2019-04-04T22:41:49.160Z,20.24
2019-04-04T22:44:17.535Z,20.24
2019-04-04T22:46:45.905Z,20.24
2019-04-04T22:49:14.329Z,20.23
2019-04-04T22:51:42.860Z,20.22
2019-04-04T22:54:11.236Z,20.23
2019-04-04T22:56:39.621Z,20.22
2019-04-04T22:59:07.983Z,20.22
2019-04-04T23:01:36.379Z,20.20
2019-04-04T23:04:04.732Z,20.20
2019-04-04T23:06:33.108Z,20.19
2019-04-04T23:09:01.473Z,20.18
2019-04-04T23:11:29.847Z,20.17
2019-04-04T23:13:58.241Z,20.17
2019-04-04T23:16:26.651Z,20.16
2019-04-04T23:18:55.048Z,20.16
2019-04-04T23:21:23.446Z,20.17
2019-04-04T23:23:51.890Z,20.16
2019-04-04T23:26:20.278Z,20.16
2019-04-04T23:28:48.647Z,20.15
2019-04-04T23:31:17.012Z,20.15
2019-04-04T23:33:45.412Z,20.15
2019-04-04T23:36:13.760Z,20.15
2019-04-04T23:38:42.159Z,20.14
2019-04-04T23:41:10.533Z,20.15
2019-04-04T23:43:38.910Z,20.14
2019-04-04T23:46:07.276Z,20.13
2019-04-04T23:48:35.664Z,20.12
2019-04-04T23:51:04.276Z,20.11
2019-04-04T23:53:32.641Z,20.12
2019-04-04T23:56:01.010Z,20.11
2019-04-04T23:58:29.389Z,20.10
